sensor_id;sensor_type;location;lat;lon;timestamp;P1;durP1;ratioP1;P2;durP2;ratioP2
58864;SDS011;45702;52.982;6.658;2024-03-25T00:02:02;30.40;;;4.55;;
58864;SDS011;45702;52.982;6.658;2024-03-25T00:04:28;29.73;;;5.38;;
58864;SDS011;45702;52.982;6.658;2024-03-25T00:06:54;31.45;;;4.57;;
58864;SDS011;45702;52.982;6.658;2024-03-25T00:09:22;29.52;;;4.50;;
58864;SDS011;45702;52.982;6.658;2024-03-25T00:11:48;25.77;;;4.90;;
58864;SDS011;45702;52.982;6.658;2024-03-25T00:14:14;25.52;;;4.75;;
58864;SDS011;45702;52.982;6.658;2024-03-25T00:16:40;27.08;;;5.45;;
58864;SDS011;45702;52.982;6.658;2024-03-25T00:19:06;23.63;;;4.18;;
58864;SDS011;45702;52.982;6.658;2024-03-25T00:21:32;26.27;;;4.32;;
58864;SDS011;45702;52.982;6.658;2024-03-25T00:23:58;27.08;;;4.25;;
58864;SDS011;45702;52.982;6.658;2024-03-25T00:26:25;19.02;;;3.88;;
58864;SDS011;45702;52.982;6.658;2024-03-25T00:28:52;21.25;;;4.07;;
58864;SDS011;45702;52.982;6.658;2024-03-25T00:31:18;26.13;;;3.92;;
58864;SDS011;45702;52.982;6.658;2024-03-25T00:33:44;25.33;;;4.00;;
58864;SDS011;45702;52.982;6.658;2024-03-25T00:36:10;19.13;;;4.35;;
58864;SDS011;45702;52.982;6.658;2024-03-25T00:38:37;25.52;;;4.25;;
58864;SDS011;45702;52.982;6.658;2024-03-25T00:41:03;25.17;;;5.20;;
58864;SDS011;45702;52.982;6.658;2024-03-25T00:43:29;26.75;;;4.35;;
58864;SDS011;45702;52.982;6.658;2024-03-25T00:45:56;27.92;;;4.55;;
58864;SDS011;45702;52.982;6.658;2024-03-25T00:48:25;24.88;;;3.70;;
58864;SDS011;45702;52.982;6.658;2024-03-25T00:50:51;26.48;;;4.53;;
58864;SDS011;45702;52.982;6.658;2024-03-25T00:53:17;23.65;;;4.25;;
58864;SDS011;45702;52.982;6.658;2024-03-25T00:55:43;28.88;;;4.90;;
58864;SDS011;45702;52.982;6.658;2024-03-25T00:58:09;26.55;;;4.75;;
58864;SDS011;45702;52.982;6.658;2024-03-25T01:00:35;26.90;;;4.50;;
58864;SDS011;45702;52.982;6.658;2024-03-25T01:03:01;23.38;;;4.90;;
58864;SDS011;45702;52.982;6.658;2024-03-25T01:05:27;23.92;;;4.60;;
58864;SDS011;45702;52.982;6.658;2024-03-25T01:07:53;23.92;;;4.35;;
58864;SDS011;45702;52.982;6.658;2024-03-25T01:10:19;29.23;;;5.03;;
58864;SDS011;45702;52.982;6.658;2024-03-25T01:12:46;19.48;;;4.55;;
58864;SDS011;45702;52.982;6.658;2024-03-25T01:15:12;35.13;;;5.00;;
58864;SDS011;45702;52.982;6.658;2024-03-25T01:17:38;27.55;;;5.28;;
58864;SDS011;45702;52.982;6.658;2024-03-25T01:20:04;26.20;;;4.80;;
58864;SDS011;45702;52.982;6.658;2024-03-25T01:22:30;27.23;;;4.40;;
58864;SDS011;45702;52.982;6.658;2024-03-25T01:24:57;22.90;;;5.57;;
58864;SDS011;45702;52.982;6.658;2024-03-25T01:27:23;21.58;;;4.65;;
58864;SDS011;45702;52.982;6.658;2024-03-25T01:29:49;27.85;;;4.68;;
58864;SDS011;45702;52.982;6.658;2024-03-25T01:42:23;25.48;;;4.75;;
58864;SDS011;45702;52.982;6.658;2024-03-25T01:44:49;24.92;;;4.78;;
58864;SDS011;45702;52.982;6.658;2024-03-25T01:47:15;25.85;;;4.43;;
58864;SDS011;45702;52.982;6.658;2024-03-25T01:49:41;26.10;;;4.63;;
58864;SDS011;45702;52.982;6.658;2024-03-25T01:52:07;31.27;;;4.38;;
58864;SDS011;45702;52.982;6.658;2024-03-25T01:54:33;28.27;;;4.80;;
58864;SDS011;45702;52.982;6.658;2024-03-25T01:56:59;24.48;;;4.03;;
58864;SDS011;45702;52.982;6.658;2024-03-25T01:59:26;26.70;;;4.43;;
58864;SDS011;45702;52.982;6.658;2024-03-25T02:01:53;21.70;;;4.15;;
58864;SDS011;45702;52.982;6.658;2024-03-25T02:04:19;28.10;;;4.68;;
58864;SDS011;45702;52.982;6.658;2024-03-25T02:06:46;30.63;;;4.65;;
58864;SDS011;45702;52.982;6.658;2024-03-25T02:09:12;27.50;;;4.55;;
58864;SDS011;45702;52.982;6.658;2024-03-25T02:11:39;31.20;;;5.30;;
58864;SDS011;45702;52.982;6.658;2024-03-25T02:14:05;27.65;;;4.60;;
58864;SDS011;45702;52.982;6.658;2024-03-25T02:16:31;28.10;;;5.00;;
58864;SDS011;45702;52.982;6.658;2024-03-25T02:18:57;36.90;;;4.97;;
58864;SDS011;45702;52.982;6.658;2024-03-25T02:21:23;33.03;;;4.50;;
58864;SDS011;45702;52.982;6.658;2024-03-25T02:23:49;30.30;;;4.68;;
58864;SDS011;45702;52.982;6.658;2024-03-25T02:26:17;27.77;;;4.63;;
58864;SDS011;45702;52.982;6.658;2024-03-25T02:28:43;24.45;;;4.55;;
58864;SDS011;45702;52.982;6.658;2024-03-25T02:31:09;27.15;;;4.60;;
58864;SDS011;45702;52.982;6.658;2024-03-25T02:33:35;21.73;;;3.95;;
58864;SDS011;45702;52.982;6.658;2024-03-25T02:36:01;29.20;;;4.45;;
58864;SDS011;45702;52.982;6.658;2024-03-25T02:38:27;31.52;;;4.60;;
58864;SDS011;45702;52.982;6.658;2024-03-25T02:40:53;27.60;;;4.20;;
58864;SDS011;45702;52.982;6.658;2024-03-25T02:43:19;27.58;;;5.03;;
58864;SDS011;45702;52.982;6.658;2024-03-25T02:45:47;34.60;;;4.55;;
58864;SDS011;45702;52.982;6.658;2024-03-25T02:48:13;32.60;;;5.03;;
58864;SDS011;45702;52.982;6.658;2024-03-25T02:50:39;34.25;;;4.70;;
58864;SDS011;45702;52.982;6.658;2024-03-25T02:53:05;37.22;;;5.25;;
58864;SDS011;45702;52.982;6.658;2024-03-25T02:55:31;30.38;;;5.22;;
58864;SDS011;45702;52.982;6.658;2024-03-25T02:57:57;30.88;;;4.82;;
58864;SDS011;45702;52.982;6.658;2024-03-25T03:00:23;30.55;;;4.47;;
58864;SDS011;45702;52.982;6.658;2024-03-25T03:02:49;35.72;;;5.35;;
58864;SDS011;45702;52.982;6.658;2024-03-25T03:05:15;34.80;;;4.75;;
58864;SDS011;45702;52.982;6.658;2024-03-25T03:07:41;36.72;;;5.13;;
58864;SDS011;45702;52.982;6.658;2024-03-25T03:10:07;32.60;;;4.40;;
58864;SDS011;45702;52.982;6.658;2024-03-25T03:12:33;28.17;;;4.00;;
58864;SDS011;45702;52.982;6.658;2024-03-25T03:14:59;30.38;;;4.00;;
58864;SDS011;45702;52.982;6.658;2024-03-25T03:17:26;26.13;;;4.30;;
58864;SDS011;45702;52.982;6.658;2024-03-25T03:19:51;24.13;;;4.40;;
58864;SDS011;45702;52.982;6.658;2024-03-25T03:22:18;22.77;;;4.15;;
58864;SDS011;45702;52.982;6.658;2024-03-25T03:24:43;17.35;;;3.20;;
58864;SDS011;45702;52.982;6.658;2024-03-25T03:27:09;25.63;;;3.88;;
58864;SDS011;45702;52.982;6.658;2024-03-25T03:29:36;24.10;;;3.60;;
58864;SDS011;45702;52.982;6.658;2024-03-25T03:32:02;18.70;;;3.72;;
58864;SDS011;45702;52.982;6.658;2024-03-25T03:34:28;31.95;;;4.05;;
58864;SDS011;45702;52.982;6.658;2024-03-25T03:36:54;22.85;;;3.85;;
58864;SDS011;45702;52.982;6.658;2024-03-25T03:39:20;22.58;;;3.60;;
58864;SDS011;45702;52.982;6.658;2024-03-25T03:41:46;16.42;;;3.63;;
58864;SDS011;45702;52.982;6.658;2024-03-25T03:44:12;25.77;;;4.75;;
58864;SDS011;45702;52.982;6.658;2024-03-25T03:46:40;30.07;;;4.17;;
58864;SDS011;45702;52.982;6.658;2024-03-25T03:49:06;24.27;;;3.83;;
58864;SDS011;45702;52.982;6.658;2024-03-25T03:51:32;26.48;;;4.20;;
58864;SDS011;45702;52.982;6.658;2024-03-25T03:53:58;20.83;;;3.75;;
58864;SDS011;45702;52.982;6.658;2024-03-25T03:56:24;26.73;;;4.45;;
58864;SDS011;45702;52.982;6.658;2024-03-25T03:58:50;28.52;;;4.07;;
58864;SDS011;45702;52.982;6.658;2024-03-25T04:01:16;32.03;;;4.15;;
58864;SDS011;45702;52.982;6.658;2024-03-25T04:03:42;30.58;;;4.47;;
58864;SDS011;45702;52.982;6.658;2024-03-25T04:06:12;38.70;;;4.95;;
58864;SDS011;45702;52.982;6.658;2024-03-25T04:08:39;28.98;;;4.30;;
58864;SDS011;45702;52.982;6.658;2024-03-25T04:11:05;32.55;;;4.38;;
58864;SDS011;45702;52.982;6.658;2024-03-25T04:13:31;20.67;;;4.00;;
58864;SDS011;45702;52.982;6.658;2024-03-25T04:16:00;25.75;;;3.88;;
58864;SDS011;45702;52.982;6.658;2024-03-25T04:18:27;21.27;;;3.72;;
58864;SDS011;45702;52.982;6.658;2024-03-25T04:20:53;28.20;;;4.32;;
58864;SDS011;45702;52.982;6.658;2024-03-25T04:23:20;27.98;;;3.80;;
58864;SDS011;45702;52.982;6.658;2024-03-25T04:25:46;27.67;;;4.18;;
58864;SDS011;45702;52.982;6.658;2024-03-25T04:28:13;27.35;;;3.80;;
58864;SDS011;45702;52.982;6.658;2024-03-25T04:30:39;26.83;;;3.90;;
58864;SDS011;45702;52.982;6.658;2024-03-25T04:33:05;25.23;;;4.65;;
58864;SDS011;45702;52.982;6.658;2024-03-25T04:35:31;18.95;;;3.55;;
58864;SDS011;45702;52.982;6.658;2024-03-25T04:37:57;27.30;;;4.13;;
58864;SDS011;45702;52.982;6.658;2024-03-25T04:40:23;31.17;;;5.18;;
58864;SDS011;45702;52.982;6.658;2024-03-25T04:42:49;28.75;;;4.15;;
58864;SDS011;45702;52.982;6.658;2024-03-25T04:45:15;17.02;;;3.50;;
58864;SDS011;45702;52.982;6.658;2024-03-25T04:47:41;22.15;;;4.38;;
58864;SDS011;45702;52.982;6.658;2024-03-25T04:50:08;21.67;;;4.03;;
58864;SDS011;45702;52.982;6.658;2024-03-25T04:52:34;21.75;;;3.53;;
58864;SDS011;45702;52.982;6.658;2024-03-25T04:55:00;19.27;;;3.65;;
58864;SDS011;45702;52.982;6.658;2024-03-25T04:57:26;27.15;;;3.88;;
58864;SDS011;45702;52.982;6.658;2024-03-25T04:59:52;20.17;;;3.80;;
58864;SDS011;45702;52.982;6.658;2024-03-25T05:02:18;24.25;;;3.90;;
58864;SDS011;45702;52.982;6.658;2024-03-25T05:04:44;18.60;;;4.03;;
58864;SDS011;45702;52.982;6.658;2024-03-25T05:07:10;29.17;;;3.92;;
58864;SDS011;45702;52.982;6.658;2024-03-25T05:09:36;24.15;;;3.60;;
58864;SDS011;45702;52.982;6.658;2024-03-25T05:12:02;19.60;;;3.55;;
58864;SDS011;45702;52.982;6.658;2024-03-25T05:14:28;21.75;;;3.47;;
58864;SDS011;45702;52.982;6.658;2024-03-25T05:16:54;24.60;;;3.90;;
58864;SDS011;45702;52.982;6.658;2024-03-25T05:19:21;27.75;;;3.80;;
58864;SDS011;45702;52.982;6.658;2024-03-25T05:21:48;18.88;;;4.15;;
58864;SDS011;45702;52.982;6.658;2024-03-25T05:24:14;21.63;;;4.18;;
58864;SDS011;45702;52.982;6.658;2024-03-25T05:26:40;20.45;;;3.60;;
58864;SDS011;45702;52.982;6.658;2024-03-25T05:29:06;25.30;;;4.13;;
58864;SDS011;45702;52.982;6.658;2024-03-25T05:31:33;19.75;;;3.70;;
58864;SDS011;45702;52.982;6.658;2024-03-25T05:33:59;21.10;;;4.28;;
58864;SDS011;45702;52.982;6.658;2024-03-25T05:36:27;26.30;;;4.40;;
58864;SDS011;45702;52.982;6.658;2024-03-25T05:38:53;28.02;;;3.83;;
58864;SDS011;45702;52.982;6.658;2024-03-25T05:41:20;20.98;;;3.88;;
58864;SDS011;45702;52.982;6.658;2024-03-25T05:43:46;25.63;;;3.83;;
58864;SDS011;45702;52.982;6.658;2024-03-25T05:46:12;37.13;;;5.53;;
58864;SDS011;45702;52.982;6.658;2024-03-25T05:48:38;25.23;;;4.47;;
58864;SDS011;45702;52.982;6.658;2024-03-25T05:51:04;28.33;;;4.82;;
58864;SDS011;45702;52.982;6.658;2024-03-25T05:53:32;19.80;;;5.15;;
58864;SDS011;45702;52.982;6.658;2024-03-25T05:55:58;29.95;;;4.68;;
58864;SDS011;45702;52.982;6.658;2024-03-25T05:58:24;26.50;;;4.68;;
58864;SDS011;45702;52.982;6.658;2024-03-25T06:00:51;26.05;;;4.20;;
58864;SDS011;45702;52.982;6.658;2024-03-25T06:03:20;28.92;;;4.82;;
58864;SDS011;45702;52.982;6.658;2024-03-25T06:05:46;23.90;;;4.57;;
58864;SDS011;45702;52.982;6.658;2024-03-25T06:08:12;29.35;;;5.03;;
58864;SDS011;45702;52.982;6.658;2024-03-25T06:10:46;29.52;;;4.82;;
58864;SDS011;45702;52.982;6.658;2024-03-25T06:13:12;33.42;;;5.10;;
58864;SDS011;45702;52.982;6.658;2024-03-25T06:15:38;39.38;;;5.22;;
58864;SDS011;45702;52.982;6.658;2024-03-25T06:18:04;24.77;;;5.25;;
58864;SDS011;45702;52.982;6.658;2024-03-25T06:20:30;28.33;;;5.20;;
58864;SDS011;45702;52.982;6.658;2024-03-25T06:22:56;29.60;;;5.00;;
58864;SDS011;45702;52.982;6.658;2024-03-25T06:25:22;36.55;;;5.95;;
58864;SDS011;45702;52.982;6.658;2024-03-25T06:27:48;26.95;;;5.28;;
58864;SDS011;45702;52.982;6.658;2024-03-25T06:30:14;38.47;;;5.45;;
58864;SDS011;45702;52.982;6.658;2024-03-25T06:32:59;33.53;;;5.13;;
58864;SDS011;45702;52.982;6.658;2024-03-25T06:35:44;29.85;;;5.35;;
58864;SDS011;45702;52.982;6.658;2024-03-25T06:38:10;31.63;;;4.80;;
58864;SDS011;45702;52.982;6.658;2024-03-25T06:40:39;38.17;;;5.13;;
58864;SDS011;45702;52.982;6.658;2024-03-25T06:43:05;31.60;;;4.82;;
58864;SDS011;45702;52.982;6.658;2024-03-25T06:45:31;39.60;;;5.60;;
58864;SDS011;45702;52.982;6.658;2024-03-25T06:47:57;28.55;;;5.20;;
58864;SDS011;45702;52.982;6.658;2024-03-25T06:50:24;30.70;;;5.25;;
58864;SDS011;45702;52.982;6.658;2024-03-25T06:52:50;33.15;;;5.05;;
58864;SDS011;45702;52.982;6.658;2024-03-25T06:55:16;33.13;;;5.50;;
58864;SDS011;45702;52.982;6.658;2024-03-25T06:57:43;31.58;;;5.05;;
58864;SDS011;45702;52.982;6.658;2024-03-25T07:00:09;34.85;;;6.00;;
58864;SDS011;45702;52.982;6.658;2024-03-25T07:02:38;38.00;;;5.50;;
58864;SDS011;45702;52.982;6.658;2024-03-25T07:05:04;36.60;;;5.35;;
58864;SDS011;45702;52.982;6.658;2024-03-25T07:07:34;30.95;;;5.10;;
58864;SDS011;45702;52.982;6.658;2024-03-25T07:10:00;23.23;;;4.63;;
58864;SDS011;45702;52.982;6.658;2024-03-25T07:12:26;34.88;;;4.90;;
58864;SDS011;45702;52.982;6.658;2024-03-25T07:14:53;29.00;;;6.00;;
58864;SDS011;45702;52.982;6.658;2024-03-25T07:17:19;40.58;;;5.55;;
58864;SDS011;45702;52.982;6.658;2024-03-25T07:19:46;28.15;;;5.22;;
58864;SDS011;45702;52.982;6.658;2024-03-25T07:22:12;30.13;;;4.95;;
58864;SDS011;45702;52.982;6.658;2024-03-25T07:24:38;25.25;;;5.00;;
58864;SDS011;45702;52.982;6.658;2024-03-25T07:27:04;25.38;;;4.80;;
58864;SDS011;45702;52.982;6.658;2024-03-25T07:29:31;37.03;;;5.10;;
58864;SDS011;45702;52.982;6.658;2024-03-25T07:31:57;28.63;;;5.22;;
58864;SDS011;45702;52.982;6.658;2024-03-25T07:34:23;31.60;;;4.70;;
58864;SDS011;45702;52.982;6.658;2024-03-25T07:36:49;32.05;;;5.47;;
58864;SDS011;45702;52.982;6.658;2024-03-25T07:39:15;26.92;;;4.25;;
58864;SDS011;45702;52.982;6.658;2024-03-25T07:41:41;23.23;;;4.32;;
58864;SDS011;45702;52.982;6.658;2024-03-25T07:44:07;35.90;;;4.20;;
58864;SDS011;45702;52.982;6.658;2024-03-25T07:46:34;38.20;;;4.75;;
58864;SDS011;45702;52.982;6.658;2024-03-25T07:49:00;23.92;;;4.72;;
58864;SDS011;45702;52.982;6.658;2024-03-25T07:51:26;24.27;;;4.07;;
58864;SDS011;45702;52.982;6.658;2024-03-25T07:53:52;33.92;;;4.90;;
58864;SDS011;45702;52.982;6.658;2024-03-25T07:56:19;34.80;;;4.95;;
58864;SDS011;45702;52.982;6.658;2024-03-25T07:58:45;32.65;;;4.93;;
58864;SDS011;45702;52.982;6.658;2024-03-25T08:01:11;29.20;;;4.18;;
58864;SDS011;45702;52.982;6.658;2024-03-25T08:03:37;23.58;;;3.85;;
58864;SDS011;45702;52.982;6.658;2024-03-25T08:06:03;23.80;;;4.30;;
58864;SDS011;45702;52.982;6.658;2024-03-25T08:08:29;24.63;;;3.88;;
58864;SDS011;45702;52.982;6.658;2024-03-25T08:10:55;29.48;;;3.85;;
58864;SDS011;45702;52.982;6.658;2024-03-25T08:13:22;22.02;;;4.13;;
58864;SDS011;45702;52.982;6.658;2024-03-25T08:15:48;26.58;;;3.75;;
58864;SDS011;45702;52.982;6.658;2024-03-25T08:18:14;22.83;;;3.75;;
58864;SDS011;45702;52.982;6.658;2024-03-25T08:20:40;26.02;;;4.20;;
58864;SDS011;45702;52.982;6.658;2024-03-25T08:23:06;32.92;;;3.67;;
58864;SDS011;45702;52.982;6.658;2024-03-25T08:25:32;20.88;;;3.63;;
58864;SDS011;45702;52.982;6.658;2024-03-25T08:27:58;20.10;;;3.55;;
58864;SDS011;45702;52.982;6.658;2024-03-25T08:30:24;28.45;;;4.00;;
58864;SDS011;45702;52.982;6.658;2024-03-25T08:32:51;25.90;;;2.92;;
58864;SDS011;45702;52.982;6.658;2024-03-25T08:35:17;17.77;;;2.90;;
58864;SDS011;45702;52.982;6.658;2024-03-25T08:37:43;14.48;;;2.47;;
58864;SDS011;45702;52.982;6.658;2024-03-25T08:40:09;14.70;;;2.80;;
58864;SDS011;45702;52.982;6.658;2024-03-25T08:42:35;19.75;;;3.40;;
58864;SDS011;45702;52.982;6.658;2024-03-25T08:45:01;14.23;;;2.90;;
58864;SDS011;45702;52.982;6.658;2024-03-25T08:47:28;13.65;;;3.10;;
58864;SDS011;45702;52.982;6.658;2024-03-25T08:49:54;17.85;;;3.22;;
58864;SDS011;45702;52.982;6.658;2024-03-25T08:52:20;16.45;;;3.45;;
58864;SDS011;45702;52.982;6.658;2024-03-25T08:54:46;19.60;;;2.97;;
58864;SDS011;45702;52.982;6.658;2024-03-25T08:57:12;11.15;;;3.00;;
58864;SDS011;45702;52.982;6.658;2024-03-25T08:59:38;23.38;;;3.25;;
58864;SDS011;45702;52.982;6.658;2024-03-25T09:02:04;16.75;;;2.97;;
58864;SDS011;45702;52.982;6.658;2024-03-25T09:04:30;19.10;;;3.67;;
58864;SDS011;45702;52.982;6.658;2024-03-25T09:06:56;20.42;;;3.20;;
58864;SDS011;45702;52.982;6.658;2024-03-25T09:09:23;28.92;;;4.25;;
58864;SDS011;45702;52.982;6.658;2024-03-25T09:12:07;19.80;;;4.05;;
58864;SDS011;45702;52.982;6.658;2024-03-25T09:14:33;25.63;;;3.85;;
58864;SDS011;45702;52.982;6.658;2024-03-25T09:16:59;24.23;;;4.75;;
58864;SDS011;45702;52.982;6.658;2024-03-25T09:19:25;16.58;;;3.40;;
58864;SDS011;45702;52.982;6.658;2024-03-25T09:21:51;21.48;;;3.47;;
58864;SDS011;45702;52.982;6.658;2024-03-25T09:24:17;16.67;;;3.38;;
58864;SDS011;45702;52.982;6.658;2024-03-25T09:26:44;15.32;;;2.83;;
58864;SDS011;45702;52.982;6.658;2024-03-25T09:29:11;17.60;;;3.70;;
58864;SDS011;45702;52.982;6.658;2024-03-25T09:31:38;16.00;;;2.72;;
58864;SDS011;45702;52.982;6.658;2024-03-25T09:34:05;17.45;;;3.38;;
58864;SDS011;45702;52.982;6.658;2024-03-25T09:36:31;22.65;;;3.30;;
58864;SDS011;45702;52.982;6.658;2024-03-25T09:38:57;16.50;;;3.05;;
58864;SDS011;45702;52.982;6.658;2024-03-25T09:41:23;16.38;;;2.80;;
58864;SDS011;45702;52.982;6.658;2024-03-25T09:43:52;20.70;;;3.08;;
58864;SDS011;45702;52.982;6.658;2024-03-25T09:46:20;19.58;;;3.67;;
58864;SDS011;45702;52.982;6.658;2024-03-25T09:48:46;14.95;;;3.00;;
58864;SDS011;45702;52.982;6.658;2024-03-25T09:51:12;15.43;;;2.92;;
58864;SDS011;45702;52.982;6.658;2024-03-25T09:53:38;13.50;;;2.42;;
58864;SDS011;45702;52.982;6.658;2024-03-25T09:56:05;18.35;;;2.70;;
58864;SDS011;45702;52.982;6.658;2024-03-25T09:58:31;14.77;;;3.00;;
58864;SDS011;45702;52.982;6.658;2024-03-25T10:00:57;12.73;;;2.50;;
58864;SDS011;45702;52.982;6.658;2024-03-25T10:03:23;15.40;;;2.50;;
58864;SDS011;45702;52.982;6.658;2024-03-25T10:05:50;15.40;;;2.17;;
58864;SDS011;45702;52.982;6.658;2024-03-25T10:08:20;15.43;;;2.25;;
58864;SDS011;45702;52.982;6.658;2024-03-25T10:10:46;18.42;;;2.38;;
58864;SDS011;45702;52.982;6.658;2024-03-25T10:13:12;19.50;;;2.70;;
58864;SDS011;45702;52.982;6.658;2024-03-25T10:15:38;13.07;;;2.35;;
58864;SDS011;45702;52.982;6.658;2024-03-25T10:18:04;15.93;;;2.35;;
58864;SDS011;45702;52.982;6.658;2024-03-25T10:20:31;15.57;;;2.60;;
58864;SDS011;45702;52.982;6.658;2024-03-25T10:22:57;14.77;;;2.50;;
58864;SDS011;45702;52.982;6.658;2024-03-25T10:25:25;14.10;;;2.55;;
58864;SDS011;45702;52.982;6.658;2024-03-25T10:27:58;10.80;;;2.67;;
58864;SDS011;45702;52.982;6.658;2024-03-25T10:30:25;19.60;;;2.83;;
58864;SDS011;45702;52.982;6.658;2024-03-25T10:33:02;10.25;;;2.50;;
58864;SDS011;45702;52.982;6.658;2024-03-25T10:35:29;13.02;;;2.28;;
58864;SDS011;45702;52.982;6.658;2024-03-25T10:37:56;12.38;;;2.75;;
58864;SDS011;45702;52.982;6.658;2024-03-25T10:40:24;10.88;;;2.20;;
58864;SDS011;45702;52.982;6.658;2024-03-25T10:42:54;17.52;;;2.70;;
58864;SDS011;45702;52.982;6.658;2024-03-25T10:47:47;14.38;;;2.40;;
58864;SDS011;45702;52.982;6.658;2024-03-25T10:50:13;19.23;;;2.92;;
58864;SDS011;45702;52.982;6.658;2024-03-25T10:52:42;15.00;;;2.85;;
58864;SDS011;45702;52.982;6.658;2024-03-25T10:55:08;17.58;;;2.47;;
58864;SDS011;45702;52.982;6.658;2024-03-25T10:57:34;13.80;;;2.53;;
58864;SDS011;45702;52.982;6.658;2024-03-25T11:00:01;15.73;;;2.63;;
58864;SDS011;45702;52.982;6.658;2024-03-25T11:02:28;16.47;;;2.40;;
58864;SDS011;45702;52.982;6.658;2024-03-25T11:04:55;13.48;;;2.35;;
58864;SDS011;45702;52.982;6.658;2024-03-25T11:07:27;17.63;;;2.63;;
58864;SDS011;45702;52.982;6.658;2024-03-25T11:09:53;15.07;;;2.67;;
58864;SDS011;45702;52.982;6.658;2024-03-25T11:12:31;13.57;;;2.60;;
58864;SDS011;45702;52.982;6.658;2024-03-25T11:14:57;14.45;;;2.60;;
58864;SDS011;45702;52.982;6.658;2024-03-25T11:17:26;13.27;;;2.47;;
58864;SDS011;45702;52.982;6.658;2024-03-25T11:19:53;10.50;;;1.98;;
58864;SDS011;45702;52.982;6.658;2024-03-25T11:22:24;12.88;;;2.53;;
58864;SDS011;45702;52.982;6.658;2024-03-25T11:24:50;16.63;;;2.58;;
58864;SDS011;45702;52.982;6.658;2024-03-25T11:27:26;16.10;;;2.60;;
58864;SDS011;45702;52.982;6.658;2024-03-25T11:29:52;12.82;;;2.47;;
58864;SDS011;45702;52.982;6.658;2024-03-25T11:32:18;10.20;;;2.67;;
58864;SDS011;45702;52.982;6.658;2024-03-25T11:34:50;12.05;;;2.33;;
58864;SDS011;45702;52.982;6.658;2024-03-25T11:37:16;15.00;;;2.35;;
58864;SDS011;45702;52.982;6.658;2024-03-25T11:39:43;8.52;;;2.13;;
58864;SDS011;45702;52.982;6.658;2024-03-25T11:42:09;10.27;;;2.33;;
58864;SDS011;45702;52.982;6.658;2024-03-25T11:44:36;11.75;;;2.75;;
58864;SDS011;45702;52.982;6.658;2024-03-25T11:47:03;11.15;;;2.13;;
58864;SDS011;45702;52.982;6.658;2024-03-25T11:49:30;10.07;;;2.20;;
58864;SDS011;45702;52.982;6.658;2024-03-25T11:51:58;7.35;;;1.90;;
58864;SDS011;45702;52.982;6.658;2024-03-25T11:54:26;10.57;;;2.23;;
58864;SDS011;45702;52.982;6.658;2024-03-25T11:56:54;13.18;;;1.80;;
58864;SDS011;45702;52.982;6.658;2024-03-25T11:59:20;8.23;;;1.90;;
58864;SDS011;45702;52.982;6.658;2024-03-25T12:01:46;7.55;;;1.80;;
58864;SDS011;45702;52.982;6.658;2024-03-25T12:04:16;9.07;;;2.00;;
58864;SDS011;45702;52.982;6.658;2024-03-25T12:06:42;9.52;;;2.05;;
58864;SDS011;45702;52.982;6.658;2024-03-25T12:09:10;8.38;;;1.80;;
58864;SDS011;45702;52.982;6.658;2024-03-25T12:11:55;11.38;;;2.00;;
58864;SDS011;45702;52.982;6.658;2024-03-25T12:14:24;9.85;;;2.22;;
58864;SDS011;45702;52.982;6.658;2024-03-25T12:16:54;8.50;;;1.75;;
58864;SDS011;45702;52.982;6.658;2024-03-25T12:19:20;14.50;;;2.17;;
58864;SDS011;45702;52.982;6.658;2024-03-25T12:21:50;14.77;;;1.85;;
58864;SDS011;45702;52.982;6.658;2024-03-25T12:24:16;11.13;;;1.77;;
58864;SDS011;45702;52.982;6.658;2024-03-25T12:26:43;9.15;;;1.92;;
58864;SDS011;45702;52.982;6.658;2024-03-25T12:29:09;10.27;;;1.98;;
58864;SDS011;45702;52.982;6.658;2024-03-25T12:31:35;11.70;;;1.80;;
58864;SDS011;45702;52.982;6.658;2024-03-25T12:34:01;9.05;;;1.75;;
58864;SDS011;45702;52.982;6.658;2024-03-25T12:36:27;10.60;;;1.98;;
58864;SDS011;45702;52.982;6.658;2024-03-25T12:38:59;10.68;;;2.00;;
58864;SDS011;45702;52.982;6.658;2024-03-25T12:41:25;11.55;;;2.30;;
58864;SDS011;45702;52.982;6.658;2024-03-25T12:43:51;12.90;;;2.17;;
58864;SDS011;45702;52.982;6.658;2024-03-25T12:46:17;11.88;;;2.22;;
58864;SDS011;45702;52.982;6.658;2024-03-25T12:48:43;10.27;;;1.85;;
58864;SDS011;45702;52.982;6.658;2024-03-25T12:51:14;8.70;;;1.70;;
58864;SDS011;45702;52.982;6.658;2024-03-25T12:53:40;13.02;;;1.90;;
58864;SDS011;45702;52.982;6.658;2024-03-25T12:56:06;9.93;;;2.05;;
58864;SDS011;45702;52.982;6.658;2024-03-25T12:58:33;10.23;;;1.88;;
58864;SDS011;45702;52.982;6.658;2024-03-25T13:00:59;9.15;;;1.60;;
58864;SDS011;45702;52.982;6.658;2024-03-25T13:03:25;8.50;;;1.83;;
58864;SDS011;45702;52.982;6.658;2024-03-25T13:05:51;9.27;;;1.67;;
58864;SDS011;45702;52.982;6.658;2024-03-25T13:08:19;10.23;;;2.00;;
58864;SDS011;45702;52.982;6.658;2024-03-25T13:10:45;11.52;;;2.20;;
58864;SDS011;45702;52.982;6.658;2024-03-25T13:13:11;10.93;;;1.75;;
58864;SDS011;45702;52.982;6.658;2024-03-25T13:15:37;10.40;;;2.03;;
58864;SDS011;45702;52.982;6.658;2024-03-25T13:18:03;10.75;;;2.00;;
58864;SDS011;45702;52.982;6.658;2024-03-25T13:20:29;9.75;;;1.95;;
58864;SDS011;45702;52.982;6.658;2024-03-25T13:22:55;10.43;;;1.80;;
58864;SDS011;45702;52.982;6.658;2024-03-25T13:27:50;14.68;;;2.25;;
58864;SDS011;45702;52.982;6.658;2024-03-25T13:30:16;11.98;;;2.20;;
58864;SDS011;45702;52.982;6.658;2024-03-25T13:32:42;13.70;;;2.33;;
58864;SDS011;45702;52.982;6.658;2024-03-25T13:35:08;11.18;;;1.90;;
58864;SDS011;45702;52.982;6.658;2024-03-25T13:37:34;8.85;;;1.80;;
58864;SDS011;45702;52.982;6.658;2024-03-25T13:40:03;12.65;;;1.70;;
58864;SDS011;45702;52.982;6.658;2024-03-25T13:42:31;8.95;;;1.58;;
58864;SDS011;45702;52.982;6.658;2024-03-25T13:44:57;11.30;;;2.00;;
58864;SDS011;45702;52.982;6.658;2024-03-25T13:47:23;13.27;;;2.03;;
58864;SDS011;45702;52.982;6.658;2024-03-25T13:49:49;11.45;;;1.90;;
58864;SDS011;45702;52.982;6.658;2024-03-25T13:52:15;7.65;;;1.83;;
58864;SDS011;45702;52.982;6.658;2024-03-25T13:54:41;7.50;;;1.80;;
58864;SDS011;45702;52.982;6.658;2024-03-25T13:57:07;10.07;;;1.80;;
58864;SDS011;45702;52.982;6.658;2024-03-25T13:59:34;7.00;;;1.60;;
58864;SDS011;45702;52.982;6.658;2024-03-25T14:02:00;10.13;;;1.80;;
58864;SDS011;45702;52.982;6.658;2024-03-25T14:04:26;9.38;;;2.05;;
58864;SDS011;45702;52.982;6.658;2024-03-25T14:06:52;12.30;;;1.90;;
58864;SDS011;45702;52.982;6.658;2024-03-25T14:09:24;9.60;;;1.70;;
58864;SDS011;45702;52.982;6.658;2024-03-25T14:11:51;9.88;;;1.73;;
58864;SDS011;45702;52.982;6.658;2024-03-25T14:14:17;9.20;;;1.85;;
58864;SDS011;45702;52.982;6.658;2024-03-25T14:16:43;9.93;;;1.75;;
58864;SDS011;45702;52.982;6.658;2024-03-25T14:19:10;13.65;;;1.73;;
58864;SDS011;45702;52.982;6.658;2024-03-25T14:21:36;8.80;;;1.90;;
58864;SDS011;45702;52.982;6.658;2024-03-25T14:24:04;12.02;;;1.88;;
58864;SDS011;45702;52.982;6.658;2024-03-25T14:26:31;11.73;;;1.77;;
58864;SDS011;45702;52.982;6.658;2024-03-25T14:28:57;6.82;;;1.52;;
58864;SDS011;45702;52.982;6.658;2024-03-25T14:31:24;7.88;;;1.67;;
58864;SDS011;45702;52.982;6.658;2024-03-25T14:33:50;6.65;;;1.90;;
58864;SDS011;45702;52.982;6.658;2024-03-25T14:36:18;7.57;;;1.85;;
58864;SDS011;45702;52.982;6.658;2024-03-25T14:38:44;8.25;;;1.90;;
58864;SDS011;45702;52.982;6.658;2024-03-25T14:41:11;9.95;;;1.90;;
58864;SDS011;45702;52.982;6.658;2024-03-25T14:43:37;16.52;;;2.22;;
58864;SDS011;45702;52.982;6.658;2024-03-25T14:46:04;9.40;;;1.80;;
58864;SDS011;45702;52.982;6.658;2024-03-25T14:48:30;15.32;;;2.20;;